Ashland, New Hampshire
Current Conditions -  °F | °C
As of 2:35 PM on Friday 31 Oct 2014 (Local Time) from K1P1 Reporting Station
Overcast Overcast  
Wind Chill: 49°   Ceiling: 5000
Heat Index: 49°   Visibility: 10mi
Dew Point: 38°   Wind: 0mph
Humidity: 67%   Direction: NA
Pressure: 29.99"   Gusts: NA
Location:  43.7°N, 71.63°W
Report Text: K1P1 311835Z AUTO 00000KT 10SM OVC050 09/03 A2999 RMK AO2 T00930034
Loading
Personal Weather Stations






























Interactive Weather Map
Tropical Storm Tracking
New forecast layout! Learn more

10-Day Weather Forecast

Advertisements
Track Severe Weather on mobile